AAL3330 KATL-KMIA
Flight info
| Callsign | AAL3330 |
|---|---|
| Flight time | N/A |
| Altitude | 40000 |
| Route | BANNG3 LUCKK HONID FROGZ5 |
| Aircraft | B772/H-SDE2E3FGHIJ5LORVWXY/LB1D1 |
Departure
| Time | 2026-05-03 21:30 |
|---|---|
| Airport | Hartsfield Jackson Atlanta International Airport (KATL) |
Arrival
| Time | N/A |
|---|---|
| Airport | Miami International Airport (KMIA) |
| Time | Latitude | Longitude | Altitude | Speed | Heading |
|---|---|---|---|---|---|
| 2026-05-03 20:30 | 33.64187 | -84.44174 | 1029 ft | 0 kts | 270° |
| 2026-05-03 21:12 | 33.64187 | -84.44173 | 1029 ft | 1 kts | 270° |
| 2026-05-03 21:12 | 33.64187 | -84.44156 | 1029 ft | 2 kts | 270° |
| 2026-05-03 21:12 | 33.64187 | -84.44139 | 1029 ft | 2 kts | 254° |
| 2026-05-03 21:12 | 33.64195 | -84.44124 | 1029 ft | 2 kts | 219° |
| 2026-05-03 21:13 | 33.64208 | -84.44115 | 1029 ft | 2 kts | 189° |
| 2026-05-03 21:13 | 33.64223 | -84.44115 | 1029 ft | 2 kts | 176° |
| 2026-05-03 21:13 | 33.64238 | -84.44115 | 1029 ft | 2 kts | 180° |
| 2026-05-03 21:13 | 33.64244 | -84.44115 | 1029 ft | 0 kts | 181° |
| 2026-05-03 21:18 | 33.64236 | -84.44115 | 1029 ft | 4 kts | 181° |
| 2026-05-03 21:18 | 33.64186 | -84.44116 | 1028 ft | 10 kts | 180° |
| 2026-05-03 21:19 | 33.64113 | -84.44115 | 1028 ft | 12 kts | 180° |
| 2026-05-03 21:19 | 33.64027 | -84.44114 | 1028 ft | 13 kts | 179° |
| 2026-05-03 21:19 | 33.63923 | -84.44113 | 1028 ft | 15 kts | 179° |
| 2026-05-03 21:19 | 33.63820 | -84.44115 | 1028 ft | 16 kts | 181° |
| 2026-05-03 21:20 | 33.63750 | -84.44115 | 1028 ft | 7 kts | 179° |
| 2026-05-03 21:20 | 33.63696 | -84.44106 | 1028 ft | 8 kts | 160° |
| 2026-05-03 21:20 | 33.63665 | -84.44052 | 1027 ft | 10 kts | 99° |
| 2026-05-03 21:20 | 33.63663 | -84.43956 | 1025 ft | 14 kts | 90° |
| 2026-05-03 21:21 | 33.63663 | -84.43823 | 1022 ft | 19 kts | 90° |
| 2026-05-03 21:21 | 33.63662 | -84.43652 | 1022 ft | 20 kts | 89° |
| 2026-05-03 21:21 | 33.63666 | -84.43489 | 1019 ft | 22 kts | 90° |
| 2026-05-03 21:21 | 33.63664 | -84.43303 | 1018 ft | 23 kts | 91° |
| 2026-05-03 21:22 | 33.63662 | -84.43061 | 1016 ft | 25 kts | 91° |
| 2026-05-03 21:22 | 33.63662 | -84.42915 | 1014 ft | 16 kts | 90° |
| 2026-05-03 21:22 | 33.63662 | -84.42824 | 1012 ft | 9 kts | 91° |
| 2026-05-03 21:22 | 33.63656 | -84.42735 | 1011 ft | 13 kts | 95° |
| 2026-05-03 21:23 | 33.63654 | -84.42642 | 1009 ft | 8 kts | 90° |
| 2026-05-03 21:23 | 33.63654 | -84.42554 | 1007 ft | 12 kts | 89° |
| 2026-05-03 21:23 | 33.63655 | -84.42445 | 1004 ft | 16 kts | 91° |
| 2026-05-03 21:23 | 33.63655 | -84.42297 | 998 ft | 20 kts | 90° |
| 2026-05-03 21:24 | 33.63654 | -84.42081 | 990 ft | 21 kts | 90° |
| 2026-05-03 21:24 | 33.63656 | -84.41940 | 983 ft | 17 kts | 90° |
| 2026-05-03 21:24 | 33.63655 | -84.41777 | 975 ft | 22 kts | 88° |
| 2026-05-03 21:24 | 33.63655 | -84.41612 | 972 ft | 18 kts | 90° |
| 2026-05-03 21:25 | 33.63656 | -84.41447 | 970 ft | 20 kts | 92° |
| 2026-05-03 21:25 | 33.63656 | -84.41313 | 970 ft | 10 kts | 91° |
| 2026-05-03 21:25 | 33.63655 | -84.41218 | 970 ft | 12 kts | 90° |
| 2026-05-03 21:25 | 33.63655 | -84.41103 | 969 ft | 15 kts | 90° |
| 2026-05-03 21:26 | 33.63657 | -84.40965 | 965 ft | 18 kts | 91° |
| 2026-05-03 21:26 | 33.63655 | -84.40821 | 959 ft | 7 kts | 92° |
| 2026-05-03 21:26 | 33.63637 | -84.40756 | 956 ft | 6 kts | 141° |
| 2026-05-03 21:26 | 33.63598 | -84.40745 | 955 ft | 5 kts | 178° |
| 2026-05-03 21:27 | 33.63592 | -84.40745 | 955 ft | 0 kts | 180° |
| 2026-05-03 21:27 | 33.63575 | -84.40745 | 955 ft | 5 kts | 180° |
| 2026-05-03 21:27 | 33.63517 | -84.40746 | 955 ft | 9 kts | 187° |
| 2026-05-03 21:28 | 33.63473 | -84.40778 | 957 ft | 5 kts | 258° |
| 2026-05-03 21:28 | 33.63472 | -84.40807 | 958 ft | 0 kts | 270° |
| 2026-05-03 21:28 | 33.63472 | -84.40808 | 958 ft | 1 kts | 270° |
| 2026-05-03 21:29 | 33.63473 | -84.40964 | 965 ft | 48 kts | 270° |
| 2026-05-03 21:29 | 33.63472 | -84.41465 | 972 ft | 102 kts | 270° |
| 2026-05-03 21:30 | 33.63483 | -84.43881 | 1380 ft | 167 kts | 271° |
| 2026-05-03 21:30 | 33.63517 | -84.45000 | 2066 ft | 164 kts | 270° |
| 2026-05-03 21:30 | 33.63520 | -84.46832 | 2609 ft | 179 kts | 270° |
| 2026-05-03 21:30 | 33.63518 | -84.48626 | 3196 ft | 200 kts | 270° |
| 2026-05-03 21:31 | 33.63514 | -84.50684 | 4057 ft | 215 kts | 270° |
| 2026-05-03 21:31 | 33.63509 | -84.53028 | 4915 ft | 233 kts | 269° |
| 2026-05-03 21:31 | 33.63503 | -84.55187 | 5614 ft | 248 kts | 269° |
| 2026-05-03 21:31 | 33.63496 | -84.57149 | 6357 ft | 254 kts | 269° |
| 2026-05-03 21:32 | 33.63490 | -84.59056 | 7169 ft | 256 kts | 269° |
| 2026-05-03 21:32 | 33.63480 | -84.61290 | 8098 ft | 258 kts | 269° |
| 2026-05-03 21:32 | 33.63417 | -84.63358 | 8925 ft | 259 kts | 261° |
| 2026-05-03 21:32 | 33.62851 | -84.65286 | 9644 ft | 264 kts | 242° |
| 2026-05-03 21:33 | 33.61663 | -84.66966 | 9963 ft | 272 kts | 222° |
| 2026-05-03 21:33 | 33.60093 | -84.68157 | 10013 ft | 276 kts | 214° |
| 2026-05-03 21:33 | 33.58234 | -84.69128 | 10168 ft | 304 kts | 202° |
| 2026-05-03 21:33 | 33.56089 | -84.69612 | 10530 ft | 327 kts | 189° |
| 2026-05-03 21:34 | 33.53751 | -84.69467 | 10855 ft | 351 kts | 175° |
| 2026-05-03 21:34 | 33.51306 | -84.68848 | 11160 ft | 367 kts | 173° |
| 2026-05-03 21:34 | 33.48803 | -84.68255 | 11490 ft | 379 kts | 174° |
| 2026-05-03 21:34 | 33.46182 | -84.67702 | 11995 ft | 385 kts | 175° |
| 2026-05-03 21:35 | 33.43557 | -84.67162 | 12600 ft | 389 kts | 174° |
| 2026-05-03 21:35 | 33.40935 | -84.66233 | 13171 ft | 399 kts | 163° |
| 2026-05-03 21:35 | 33.38397 | -84.64904 | 13767 ft | 405 kts | 161° |
| 2026-05-03 21:35 | 33.35817 | -84.63500 | 14378 ft | 408 kts | 161° |
| 2026-05-03 21:36 | 33.33259 | -84.62111 | 14982 ft | 411 kts | 161° |
| 2026-05-03 21:36 | 33.30648 | -84.60696 | 15579 ft | 415 kts | 161° |
| 2026-05-03 21:36 | 33.28009 | -84.59270 | 16171 ft | 419 kts | 161° |
| 2026-05-03 21:36 | 33.25336 | -84.57827 | 16761 ft | 422 kts | 161° |
| 2026-05-03 21:37 | 33.22665 | -84.56388 | 17341 ft | 425 kts | 161° |
| 2026-05-03 21:37 | 33.19967 | -84.54936 | 17908 ft | 429 kts | 161° |
| 2026-05-03 21:37 | 33.17250 | -84.53475 | 18466 ft | 433 kts | 161° |
| 2026-05-03 21:37 | 33.14507 | -84.52002 | 19043 ft | 436 kts | 161° |
| 2026-05-03 21:38 | 33.11739 | -84.50516 | 19613 ft | 440 kts | 161° |
| 2026-05-03 21:38 | 33.08962 | -84.49026 | 20188 ft | 443 kts | 161° |
| 2026-05-03 21:38 | 33.06171 | -84.47531 | 20808 ft | 444 kts | 161° |
| 2026-05-03 21:38 | 33.03329 | -84.46009 | 21394 ft | 447 kts | 161° |
| 2026-05-03 21:39 | 33.00515 | -84.44503 | 21960 ft | 449 kts | 161° |
| 2026-05-03 21:39 | 32.97617 | -84.43152 | 22515 ft | 446 kts | 169° |
| 2026-05-03 21:39 | 32.94644 | -84.42373 | 23072 ft | 442 kts | 178° |
| 2026-05-03 21:39 | 32.91593 | -84.42119 | 23601 ft | 441 kts | 184° |
| 2026-05-03 21:40 | 32.88614 | -84.42036 | 24100 ft | 444 kts | 184° |
| 2026-05-03 21:40 | 32.85509 | -84.41963 | 24619 ft | 447 kts | 184° |
| 2026-05-03 21:40 | 32.82401 | -84.41894 | 25131 ft | 450 kts | 185° |
| 2026-05-03 21:40 | 32.79273 | -84.41827 | 25632 ft | 454 kts | 185° |
| 2026-05-03 21:41 | 32.76136 | -84.41762 | 26114 ft | 457 kts | 185° |
| 2026-05-03 21:41 | 32.72937 | -84.41695 | 26603 ft | 460 kts | 185° |
| 2026-05-03 21:41 | 32.69738 | -84.41630 | 27073 ft | 463 kts | 185° |
| 2026-05-03 21:41 | 32.66528 | -84.41565 | 27531 ft | 467 kts | 185° |
| 2026-05-03 21:42 | 32.63263 | -84.41499 | 27992 ft | 470 kts | 185° |
| 2026-05-03 21:42 | 32.60003 | -84.41434 | 28438 ft | 473 kts | 185° |
| 2026-05-03 21:42 | 32.56758 | -84.41369 | 28872 ft | 476 kts | 185° |
| 2026-05-03 21:42 | 32.53405 | -84.41302 | 29307 ft | 479 kts | 185° |
| 2026-05-03 21:43 | 32.50100 | -84.41236 | 29734 ft | 482 kts | 185° |
| 2026-05-03 21:43 | 32.46738 | -84.41168 | 30289 ft | 481 kts | 185° |
| 2026-05-03 21:43 | 32.43429 | -84.41100 | 30927 ft | 479 kts | 185° |
| 2026-05-03 21:43 | 32.40155 | -84.41034 | 31543 ft | 477 kts | 185° |
| 2026-05-03 21:44 | 32.36823 | -84.40966 | 32130 ft | 475 kts | 185° |
| 2026-05-03 21:44 | 32.33559 | -84.40900 | 32696 ft | 474 kts | 185° |
| 2026-05-03 21:44 | 32.30269 | -84.40835 | 33266 ft | 473 kts | 185° |
| 2026-05-03 21:44 | 32.27020 | -84.40769 | 33817 ft | 471 kts | 185° |
| 2026-05-03 21:45 | 32.23740 | -84.40703 | 34368 ft | 470 kts | 185° |
| 2026-05-03 21:45 | 32.20498 | -84.40638 | 34913 ft | 468 kts | 185° |
| 2026-05-03 21:45 | 32.17297 | -84.40573 | 35427 ft | 467 kts | 185° |
| 2026-05-03 21:45 | 32.14059 | -84.40508 | 35921 ft | 466 kts | 185° |
| 2026-05-03 21:46 | 32.10820 | -84.40443 | 36380 ft | 464 kts | 185° |
| 2026-05-03 21:46 | 32.07634 | -84.40380 | 36780 ft | 464 kts | 185° |
| 2026-05-03 21:46 | 32.04428 | -84.40316 | 37110 ft | 464 kts | 185° |
| 2026-05-03 21:46 | 32.01176 | -84.40252 | 37420 ft | 465 kts | 185° |
| 2026-05-03 21:47 | 31.97968 | -84.40188 | 37731 ft | 465 kts | 185° |
| 2026-05-03 21:47 | 31.94756 | -84.40124 | 38043 ft | 465 kts | 185° |
| 2026-05-03 21:47 | 31.91529 | -84.40060 | 38329 ft | 464 kts | 185° |
| 2026-05-03 21:47 | 31.88392 | -84.39997 | 38576 ft | 465 kts | 185° |
| 2026-05-03 21:48 | 31.85186 | -84.39934 | 38825 ft | 465 kts | 185° |
| 2026-05-03 21:48 | 31.81948 | -84.39870 | 39071 ft | 465 kts | 185° |
| 2026-05-03 21:48 | 31.78721 | -84.39806 | 39202 ft | 465 kts | 185° |
| 2026-05-03 21:48 | 31.75503 | -84.39742 | 39216 ft | 467 kts | 185° |
| 2026-05-03 21:49 | 31.69021 | -84.39614 | 39227 ft | 466 kts | 185° |
| 2026-05-03 21:49 | 31.62587 | -84.38992 | 39231 ft | 475 kts | 175° |
| 2026-05-03 21:50 | 31.56110 | -84.37364 | 39233 ft | 477 kts | 174° |
| 2026-05-03 21:50 | 31.49645 | -84.35718 | 39233 ft | 477 kts | 174° |
| 2026-05-03 21:51 | 31.43263 | -84.34099 | 39217 ft | 476 kts | 174° |
| 2026-05-03 21:51 | 31.36810 | -84.32468 | 39214 ft | 476 kts | 174° |
| 2026-05-03 21:52 | 31.30382 | -84.30845 | 39213 ft | 476 kts | 174° |
| 2026-05-03 21:52 | 31.23936 | -84.29221 | 39213 ft | 476 kts | 174° |
| 2026-05-03 21:53 | 31.17453 | -84.27591 | 39213 ft | 476 kts | 174° |
| 2026-05-03 21:53 | 31.11041 | -84.25981 | 39213 ft | 476 kts | 174° |
| 2026-05-03 21:54 | 31.04597 | -84.24365 | 39213 ft | 476 kts | 174° |
| 2026-05-03 21:54 | 30.98149 | -84.22751 | 39213 ft | 476 kts | 175° |
| 2026-05-03 21:55 | 30.91710 | -84.21141 | 39214 ft | 476 kts | 175° |
| 2026-05-03 21:55 | 30.85282 | -84.19536 | 39217 ft | 476 kts | 175° |
| 2026-05-03 21:56 | 30.78856 | -84.17934 | 39218 ft | 476 kts | 175° |
| 2026-05-03 21:56 | 30.72405 | -84.16327 | 39219 ft | 476 kts | 175° |
| 2026-05-03 21:57 | 30.65962 | -84.14725 | 39220 ft | 476 kts | 175° |
| 2026-05-03 21:57 | 30.59490 | -84.13117 | 39221 ft | 476 kts | 175° |
| 2026-05-03 21:58 | 30.53036 | -84.11517 | 39222 ft | 476 kts | 175° |
| 2026-05-03 21:58 | 30.46580 | -84.09917 | 39220 ft | 476 kts | 175° |
| 2026-05-03 21:59 | 30.40145 | -84.08313 | 39213 ft | 477 kts | 173° |
| 2026-05-03 21:59 | 30.33916 | -84.05376 | 39213 ft | 494 kts | 158° |
| 2026-05-03 22:00 | 30.27969 | -84.01430 | 39216 ft | 495 kts | 157° |
| 2026-05-03 22:00 | 30.22040 | -83.97484 | 39217 ft | 495 kts | 157° |
| 2026-05-03 22:01 | 30.16098 | -83.93539 | 39217 ft | 494 kts | 157° |
| 2026-05-03 22:01 | 30.10162 | -83.89609 | 39218 ft | 494 kts | 157° |
| 2026-05-03 22:02 | 30.04226 | -83.85686 | 39217 ft | 494 kts | 157° |
| 2026-05-03 22:02 | 29.98276 | -83.81760 | 39209 ft | 494 kts | 157° |
| 2026-05-03 22:03 | 29.92315 | -83.77833 | 39199 ft | 494 kts | 157° |
| 2026-05-03 22:03 | 29.86400 | -83.73941 | 39194 ft | 494 kts | 157° |
| 2026-05-03 22:04 | 29.80426 | -83.70017 | 39195 ft | 494 kts | 157° |
| 2026-05-03 22:04 | 29.74510 | -83.66137 | 39195 ft | 494 kts | 157° |
| 2026-05-03 22:05 | 29.68536 | -83.62224 | 39196 ft | 494 kts | 157° |
| 2026-05-03 22:05 | 29.62599 | -83.58340 | 39196 ft | 494 kts | 157° |
| 2026-05-03 22:06 | 29.56643 | -83.54449 | 39197 ft | 494 kts | 157° |
| 2026-05-03 22:06 | 29.50715 | -83.50582 | 39197 ft | 494 kts | 157° |
| 2026-05-03 22:07 | 29.44777 | -83.46715 | 39144 ft | 495 kts | 157° |
| 2026-05-03 22:07 | 29.38808 | -83.42831 | 39199 ft | 494 kts | 157° |
| 2026-05-03 22:08 | 29.32881 | -83.38980 | 39199 ft | 494 kts | 157° |
| 2026-05-03 22:08 | 29.26904 | -83.35102 | 39199 ft | 494 kts | 157° |
| 2026-05-03 22:09 | 29.20806 | -83.31796 | 39185 ft | 487 kts | 163° |
| 2026-05-03 22:10 | 29.11532 | -83.27100 | 39184 ft | 487 kts | 163° |
| 2026-05-03 22:10 | 29.05418 | -83.24006 | 39184 ft | 486 kts | 164° |
| 2026-05-03 22:11 | 28.99227 | -83.20874 | 39182 ft | 485 kts | 165° |
| 2026-05-03 22:11 | 28.93119 | -83.17788 | 39180 ft | 483 kts | 165° |
| 2026-05-03 22:12 | 28.87026 | -83.14715 | 39183 ft | 484 kts | 165° |
| 2026-05-03 22:12 | 28.80954 | -83.11655 | 39182 ft | 484 kts | 165° |
| 2026-05-03 22:13 | 28.74967 | -83.08642 | 39182 ft | 484 kts | 165° |
| 2026-05-03 22:13 | 28.68907 | -83.05596 | 39182 ft | 484 kts | 165° |
| 2026-05-03 22:14 | 28.63092 | -83.02676 | 39183 ft | 483 kts | 165° |
| 2026-05-03 22:14 | 28.57090 | -82.99666 | 39181 ft | 482 kts | 165° |
| 2026-05-03 22:15 | 28.51142 | -82.96687 | 39180 ft | 481 kts | 165° |
| 2026-05-03 22:15 | 28.45226 | -82.93726 | 39179 ft | 481 kts | 165° |
| 2026-05-03 22:16 | 28.39144 | -82.90688 | 39178 ft | 480 kts | 165° |
| 2026-05-03 22:16 | 28.33048 | -82.87646 | 39178 ft | 480 kts | 165° |
| 2026-05-03 22:17 | 28.26925 | -82.84595 | 39177 ft | 478 kts | 165° |
| 2026-05-03 22:17 | 28.20809 | -82.81551 | 39177 ft | 478 kts | 165° |
| 2026-05-03 22:18 | 28.14677 | -82.78502 | 39177 ft | 477 kts | 165° |
| 2026-05-03 22:18 | 28.08572 | -82.75472 | 39176 ft | 477 kts | 165° |
| 2026-05-03 22:19 | 28.02442 | -82.72478 | 39174 ft | 473 kts | 169° |
| 2026-05-03 22:19 | 27.99258 | -82.71448 | 39178 ft | 462 kts | 177° |
| 2026-05-03 22:19 | 27.96084 | -82.70777 | 39176 ft | 460 kts | 179° |
| 2026-05-03 22:20 | 27.89792 | -82.69526 | 39171 ft | 460 kts | 179° |
| 2026-05-03 22:20 | 27.83473 | -82.68276 | 39174 ft | 460 kts | 179° |
| 2026-05-03 22:21 | 27.77169 | -82.67033 | 39170 ft | 460 kts | 179° |
| 2026-05-03 22:21 | 27.70857 | -82.65789 | 39166 ft | 460 kts | 179° |
| 2026-05-03 22:22 | 27.64814 | -82.64600 | 39163 ft | 460 kts | 179° |
| 2026-05-03 22:22 | 27.58762 | -82.63412 | 39165 ft | 460 kts | 179° |
| 2026-05-03 22:23 | 27.53140 | -82.62309 | 39167 ft | 460 kts | 179° |
| 2026-05-03 22:23 | 27.46965 | -82.60622 | 39169 ft | 467 kts | 173° |
| 2026-05-03 22:24 | 27.40848 | -82.58766 | 39169 ft | 466 kts | 174° |
| 2026-05-03 22:24 | 27.36280 | -82.57399 | 39169 ft | 466 kts | 174° |
| 2026-05-03 22:25 | 27.30448 | -82.55669 | 39167 ft | 466 kts | 174° |
| 2026-05-03 22:25 | 27.26172 | -82.54408 | 39165 ft | 466 kts | 174° |
| 2026-05-03 22:26 | 27.19764 | -82.52524 | 39162 ft | 466 kts | 174° |
| 2026-05-03 22:26 | 27.10068 | -82.49684 | 39159 ft | 465 kts | 174° |
| 2026-05-03 22:26 | 27.07271 | -82.48863 | 38834 ft | 457 kts | 174° |
| 2026-05-03 22:27 | 27.04654 | -82.48099 | 37998 ft | 461 kts | 174° |
| 2026-05-03 22:27 | 27.02674 | -82.47523 | 37327 ft | 465 kts | 174° |
| 2026-05-03 22:27 | 26.97890 | -82.46132 | 35892 ft | 470 kts | 173° |
| 2026-05-03 22:27 | 26.94747 | -82.45139 | 34979 ft | 477 kts | 168° |
| 2026-05-03 22:28 | 26.91714 | -82.43685 | 34061 ft | 488 kts | 159° |
| 2026-05-03 22:28 | 26.88850 | -82.41684 | 33363 ft | 496 kts | 148° |
| 2026-05-03 22:28 | 26.86173 | -82.39225 | 33063 ft | 511 kts | 144° |
| 2026-05-03 22:28 | 26.83457 | -82.36612 | 32636 ft | 516 kts | 144° |
| 2026-05-03 22:29 | 26.80807 | -82.34055 | 32148 ft | 516 kts | 144° |
| 2026-05-03 22:29 | 26.78068 | -82.31417 | 31630 ft | 517 kts | 144° |
| 2026-05-03 22:29 | 26.75358 | -82.28812 | 31131 ft | 519 kts | 144° |
| 2026-05-03 22:29 | 26.72625 | -82.26189 | 30601 ft | 519 kts | 143° |
| 2026-05-03 22:30 | 26.69927 | -82.23601 | 30065 ft | 515 kts | 143° |
| 2026-05-03 22:30 | 26.67227 | -82.21015 | 29500 ft | 510 kts | 143° |
| 2026-05-03 22:30 | 26.64571 | -82.18472 | 28971 ft | 505 kts | 143° |
| 2026-05-03 22:30 | 26.61925 | -82.15942 | 28474 ft | 500 kts | 143° |
| 2026-05-03 22:31 | 26.59317 | -82.13452 | 27973 ft | 498 kts | 142° |
| 2026-05-03 22:31 | 26.56675 | -82.10931 | 27456 ft | 494 kts | 142° |
| 2026-05-03 22:31 | 26.54096 | -82.08472 | 26949 ft | 490 kts | 142° |
| 2026-05-03 22:31 | 26.51528 | -82.05995 | 26444 ft | 487 kts | 141° |
| 2026-05-03 22:32 | 26.49052 | -82.03497 | 25964 ft | 483 kts | 140° |
| 2026-05-03 22:32 | 26.46577 | -82.00989 | 25483 ft | 479 kts | 140° |
| 2026-05-03 22:32 | 26.44114 | -81.98497 | 25003 ft | 475 kts | 140° |
| 2026-05-03 22:32 | 26.41721 | -81.96079 | 24535 ft | 466 kts | 139° |
| 2026-05-03 22:33 | 26.39331 | -81.93668 | 24071 ft | 456 kts | 139° |
| 2026-05-03 22:33 | 26.37000 | -81.91320 | 23618 ft | 447 kts | 139° |
| 2026-05-03 22:33 | 26.34719 | -81.89025 | 23173 ft | 438 kts | 139° |
| 2026-05-03 22:33 | 26.32502 | -81.86795 | 22739 ft | 430 kts | 139° |
| 2026-05-03 22:34 | 26.30300 | -81.84583 | 22307 ft | 422 kts | 139° |
| 2026-05-03 22:34 | 26.28151 | -81.82426 | 21886 ft | 415 kts | 139° |
| 2026-05-03 22:34 | 26.26039 | -81.80306 | 21471 ft | 409 kts | 138° |
| 2026-05-03 22:34 | 26.24126 | -81.78011 | 21053 ft | 407 kts | 127° |
| 2026-05-03 22:35 | 26.22617 | -81.75383 | 20618 ft | 405 kts | 117° |
| 2026-05-03 22:35 | 26.21394 | -81.72643 | 20185 ft | 400 kts | 115° |
| 2026-05-03 22:35 | 26.20254 | -81.70020 | 19773 ft | 396 kts | 115° |
| 2026-05-03 22:35 | 26.19314 | -81.67855 | 19433 ft | 392 kts | 115° |
| 2026-05-03 22:36 | 26.17938 | -81.64689 | 18937 ft | 388 kts | 115° |
| 2026-05-03 22:36 | 26.16785 | -81.62037 | 18521 ft | 385 kts | 115° |
| 2026-05-03 22:36 | 26.15752 | -81.59665 | 18148 ft | 382 kts | 115° |
| 2026-05-03 22:36 | 26.15078 | -81.58115 | 17905 ft | 380 kts | 115° |
| 2026-05-03 22:37 | 26.13520 | -81.54539 | 17344 ft | 375 kts | 115° |
| 2026-05-03 22:37 | 26.12396 | -81.51962 | 16939 ft | 372 kts | 115° |
| 2026-05-03 22:37 | 26.11272 | -81.49387 | 16535 ft | 368 kts | 115° |
| 2026-05-03 22:37 | 26.10166 | -81.46853 | 16138 ft | 365 kts | 115° |
| 2026-05-03 22:38 | 26.09045 | -81.44286 | 15734 ft | 362 kts | 115° |
| 2026-05-03 22:38 | 26.08042 | -81.41993 | 15374 ft | 360 kts | 115° |
| 2026-05-03 22:38 | 26.07157 | -81.39969 | 15054 ft | 357 kts | 115° |
| 2026-05-03 22:38 | 26.05898 | -81.37081 | 14623 ft | 354 kts | 115° |
| 2026-05-03 22:39 | 26.05194 | -81.35464 | 14394 ft | 352 kts | 115° |
| 2026-05-03 22:39 | 26.03892 | -81.32471 | 13965 ft | 349 kts | 115° |
| 2026-05-03 22:39 | 26.02819 | -81.30010 | 13610 ft | 347 kts | 115° |
| 2026-05-03 22:39 | 26.01761 | -81.27583 | 13259 ft | 344 kts | 116° |
| 2026-05-03 22:40 | 26.00823 | -81.25433 | 12947 ft | 342 kts | 116° |
| 2026-05-03 22:40 | 25.99771 | -81.23023 | 12598 ft | 340 kts | 116° |
| 2026-05-03 22:40 | 25.98776 | -81.20745 | 12268 ft | 338 kts | 116° |
| 2026-05-03 22:40 | 25.97823 | -81.18565 | 11951 ft | 335 kts | 116° |
| 2026-05-03 22:41 | 25.97309 | -81.17390 | 11781 ft | 335 kts | 116° |
| 2026-05-03 22:41 | 25.95762 | -81.13852 | 11270 ft | 332 kts | 116° |
| 2026-05-03 22:41 | 25.94763 | -81.11570 | 10940 ft | 331 kts | 116° |
| 2026-05-03 22:41 | 25.93760 | -81.09281 | 10706 ft | 330 kts | 116° |
| 2026-05-03 22:42 | 25.92864 | -81.07237 | 10524 ft | 330 kts | 116° |
| 2026-05-03 22:42 | 25.91801 | -81.04812 | 10293 ft | 330 kts | 116° |
| 2026-05-03 22:42 | 25.90807 | -81.02500 | 10063 ft | 325 kts | 114° |
| 2026-05-03 22:42 | 25.89996 | -81.00365 | 9812 ft | 312 kts | 112° |
| 2026-05-03 22:43 | 25.89331 | -80.98579 | 9574 ft | 304 kts | 112° |
| 2026-05-03 22:43 | 25.88409 | -80.96135 | 9286 ft | 292 kts | 112° |
| 2026-05-03 22:43 | 25.87639 | -80.94117 | 9081 ft | 284 kts | 112° |
| 2026-05-03 22:43 | 25.86884 | -80.92146 | 8868 ft | 282 kts | 112° |
| 2026-05-03 22:44 | 25.86389 | -80.90855 | 8701 ft | 281 kts | 112° |
| 2026-05-03 22:44 | 25.85821 | -80.89378 | 8505 ft | 280 kts | 112° |
| 2026-05-03 22:44 | 25.84808 | -80.86739 | 8165 ft | 277 kts | 114° |
| 2026-05-03 22:44 | 25.84067 | -80.84813 | 7918 ft | 275 kts | 114° |
| 2026-05-03 22:45 | 25.83313 | -80.82855 | 7613 ft | 274 kts | 114° |
| 2026-05-03 22:45 | 25.82558 | -80.80892 | 7296 ft | 272 kts | 114° |
| 2026-05-03 22:45 | 25.81838 | -80.79023 | 7002 ft | 269 kts | 114° |
| 2026-05-03 22:45 | 25.81098 | -80.77101 | 6707 ft | 268 kts | 114° |
| 2026-05-03 22:46 | 25.80362 | -80.75192 | 6443 ft | 266 kts | 114° |
| 2026-05-03 22:46 | 25.79989 | -80.74226 | 6309 ft | 266 kts | 114° |
| 2026-05-03 22:46 | 25.78448 | -80.70232 | 5750 ft | 267 kts | 114° |
| 2026-05-03 22:47 | 25.77925 | -80.68875 | 5559 ft | 266 kts | 114° |
| 2026-05-03 22:47 | 25.77166 | -80.65762 | 5132 ft | 265 kts | 92° |
| 2026-05-03 22:47 | 25.77187 | -80.64207 | 4934 ft | 265 kts | 88° |
| 2026-05-03 22:47 | 25.77260 | -80.62538 | 4718 ft | 264 kts | 88° |
| 2026-05-03 22:48 | 25.77361 | -80.60470 | 4451 ft | 262 kts | 88° |
| 2026-05-03 22:48 | 25.77422 | -80.59173 | 4283 ft | 262 kts | 88° |
| 2026-05-03 22:48 | 25.77485 | -80.57832 | 4110 ft | 261 kts | 88° |
| 2026-05-03 22:48 | 25.77544 | -80.56547 | 4018 ft | 258 kts | 88° |